createdAt,value
2022-12-11T00:01:13.038Z,93.50
2022-12-11T00:03:42.791Z,90.50
2022-12-11T00:06:16.734Z,86.10
2022-12-11T00:08:44.778Z,78.40
2022-12-11T00:11:15.722Z,83.40
2022-12-11T00:13:44.398Z,88.10
2022-12-11T00:16:13.054Z,80.50
2022-12-11T00:18:41.440Z,80.40
2022-12-11T00:21:14.383Z,81.50
2022-12-11T00:23:42.786Z,79.60
2022-12-11T00:26:15.466Z,77.00
2022-12-11T00:28:45.450Z,78.70
2022-12-11T00:31:17.059Z,78.20
2022-12-11T00:33:49.076Z,76.80
2022-12-11T00:36:25.400Z,86.70
2022-12-11T00:38:54.351Z,86.60
2022-12-11T00:41:22.663Z,79.50
2022-12-11T00:43:51.368Z,89.80
2022-12-11T00:46:19.601Z,79.20
2022-12-11T00:48:49.817Z,80.90
2022-12-11T00:51:18.064Z,84.90
2022-12-11T00:53:45.908Z,75.20
2022-12-11T00:56:18.204Z,78.10
2022-12-11T00:58:48.253Z,81.30
2022-12-11T01:01:21.853Z,91.70
2022-12-11T01:03:50.820Z,93.80
2022-12-11T01:06:26.048Z,99.10
2022-12-11T01:09:22.153Z,85.10
2022-12-11T01:11:50.040Z,94.40
2022-12-11T01:14:17.776Z,84.30
2022-12-11T01:16:45.535Z,97.80
2022-12-11T01:19:13.261Z,103.40
2022-12-11T01:21:41.202Z,89.00
2022-12-11T01:24:08.997Z,87.00
2022-12-11T01:26:36.878Z,82.00
2022-12-11T01:29:04.541Z,81.40
2022-12-11T01:31:32.254Z,89.50
2022-12-11T01:33:59.974Z,93.70
2022-12-11T01:36:27.726Z,89.90
2022-12-11T01:38:56.141Z,90.00
2022-12-11T01:41:23.868Z,86.00
2022-12-11T01:44:13.676Z,89.10
2022-12-11T01:46:43.019Z,99.70
2022-12-11T01:49:15.177Z,85.80
2022-12-11T01:51:55.433Z,85.20
2022-12-11T01:54:25.568Z,99.70
2022-12-11T01:57:00.136Z,88.70
2022-12-11T01:59:34.145Z,91.90
2022-12-11T02:02:12.284Z,92.00
2022-12-11T02:04:42.280Z,93.60
2022-12-11T02:07:10.543Z,94.30
2022-12-11T02:09:42.476Z,96.80
2022-12-11T02:12:39.222Z,97.00
2022-12-11T02:15:25.140Z,99.10
2022-12-11T02:18:02.134Z,93.70
2022-12-11T02:21:15.609Z,93.80
2022-12-11T02:24:04.267Z,87.50
2022-12-11T02:26:57.545Z,86.50
2022-12-11T02:29:38.908Z,81.70
2022-12-11T02:32:20.980Z,86.50
2022-12-11T02:35:11.405Z,87.80
2022-12-11T02:37:45.085Z,92.00
2022-12-11T02:40:17.866Z,86.70
2022-12-11T02:42:48.932Z,88.80
2022-12-11T02:45:19.945Z,88.20
2022-12-11T02:47:49.583Z,85.80
2022-12-11T02:50:21.986Z,85.00
2022-12-11T02:52:55.747Z,84.10
2022-12-11T02:55:27.548Z,80.40
2022-12-11T02:58:04.201Z,77.60
2022-12-11T03:00:32.252Z,80.80
2022-12-11T03:03:00.048Z,71.30
2022-12-11T03:05:27.997Z,67.60
2022-12-11T03:07:56.310Z,71.20
2022-12-11T03:10:25.133Z,63.90
2022-12-11T03:12:56.985Z,51.40
2022-12-11T03:15:59.227Z,57.50
2022-12-11T03:19:06.605Z,66.40
2022-12-11T03:21:42.666Z,60.70
2022-12-11T03:24:44.202Z,61.40
2022-12-11T03:27:26.728Z,66.40
2022-12-11T03:30:01.567Z,60.10
2022-12-11T03:32:38.306Z,64.10
2022-12-11T03:35:16.182Z,59.30
2022-12-11T03:37:47.880Z,59.30
2022-12-11T03:40:20.500Z,60.50
2022-12-11T03:42:53.646Z,60.60
2022-12-11T03:45:25.406Z,61.70
2022-12-11T03:47:56.850Z,62.40
2022-12-11T03:52:57.564Z,65.10
2022-12-11T03:55:28.115Z,68.70
2022-12-11T03:57:55.935Z,61.80
2022-12-11T04:00:23.839Z,66.10
2022-12-11T04:03:13.544Z,75.00
2022-12-11T04:05:46.383Z,69.40
2022-12-11T04:08:15.468Z,64.20
2022-12-11T04:10:44.037Z,72.70
2022-12-11T04:13:12.150Z,71.90
2022-12-11T04:15:40.865Z,65.30
2022-12-11T04:18:28.009Z,69.50
2022-12-11T04:21:15.176Z,54.50
2022-12-11T04:24:01.774Z,58.20
2022-12-11T04:26:29.440Z,55.90
2022-12-11T04:28:57.160Z,51.30
2022-12-11T04:31:24.895Z,46.70
2022-12-11T04:33:53.201Z,46.60
2022-12-11T04:36:21.289Z,42.80
2022-12-11T04:38:49.013Z,41.70
2022-12-11T04:41:17.980Z,52.30
2022-12-11T04:43:45.743Z,45.50
2022-12-11T04:46:21.371Z,44.40
2022-12-11T04:48:55.397Z,44.60
2022-12-11T04:51:25.960Z,46.30
2022-12-11T04:53:54.479Z,54.10
2022-12-11T04:56:22.387Z,47.70
2022-12-11T04:58:50.222Z,43.20
2022-12-11T05:01:22.709Z,49.50
2022-12-11T05:03:50.933Z,45.70
2022-12-11T05:06:18.652Z,44.10
2022-12-11T05:08:46.473Z,42.90
2022-12-11T05:11:15.810Z,41.00
2022-12-11T05:13:45.428Z,42.50
2022-12-11T05:16:16.515Z,49.20
2022-12-11T05:18:44.843Z,49.40
2022-12-11T05:21:15.778Z,50.60
2022-12-11T05:23:44.036Z,57.90
2022-12-11T05:26:17.721Z,48.30
2022-12-11T05:28:46.997Z,48.60
2022-12-11T05:31:19.049Z,50.80
2022-12-11T05:33:50.180Z,48.30
2022-12-11T05:36:29.737Z,51.10
2022-12-11T05:39:00.621Z,52.10
2022-12-11T05:41:32.573Z,51.50
2022-12-11T05:44:00.458Z,47.20
2022-12-11T05:46:31.231Z,41.80
2022-12-11T05:49:02.262Z,58.30
2022-12-11T05:51:31.157Z,51.20
2022-12-11T05:53:58.928Z,49.20
2022-12-11T05:56:33.941Z,46.30
2022-12-11T05:59:04.172Z,46.90
2022-12-11T06:01:42.788Z,47.70
2022-12-11T06:04:12.457Z,50.80
2022-12-11T06:06:40.905Z,48.80
2022-12-11T06:09:08.687Z,41.00
2022-12-11T06:11:36.495Z,41.80
2022-12-11T06:14:04.710Z,44.40
2022-12-11T06:16:32.585Z,42.20
2022-12-11T06:19:00.576Z,41.10
2022-12-11T06:21:33.181Z,41.60
2022-12-11T06:24:03.749Z,42.00
2022-12-11T06:26:32.312Z,42.50
2022-12-11T06:29:00.290Z,35.90
2022-12-11T06:31:28.250Z,38.10
2022-12-11T06:33:56.300Z,40.90
2022-12-11T06:36:25.188Z,37.80
2022-12-11T06:38:55.396Z,40.30
2022-12-11T06:41:23.289Z,36.80
2022-12-11T06:43:51.120Z,37.30
2022-12-11T06:46:20.841Z,44.50
2022-12-11T06:48:49.870Z,44.00
2022-12-11T06:51:21.934Z,43.20
2022-12-11T06:53:55.192Z,45.20
2022-12-11T06:56:24.622Z,42.90
2022-12-11T06:58:53.104Z,39.50
2022-12-11T07:01:25.670Z,39.00
2022-12-11T07:03:56.435Z,42.90
2022-12-11T07:06:27.468Z,42.70
2022-12-11T07:08:56.640Z,46.60
2022-12-11T07:11:24.383Z,41.90
2022-12-11T07:13:52.194Z,49.30
2022-12-11T07:16:20.276Z,48.10
2022-12-11T07:18:51.373Z,41.90
2022-12-11T07:21:21.242Z,46.80
2022-12-11T07:23:50.323Z,47.00
2022-12-11T07:26:22.208Z,41.50
2022-12-11T07:28:50.250Z,37.40
2022-12-11T07:31:23.023Z,34.80
2022-12-11T07:34:02.005Z,39.20
2022-12-11T07:36:31.123Z,35.60
2022-12-11T07:39:00.781Z,32.50
2022-12-11T07:41:28.868Z,30.10
2022-12-11T07:43:56.565Z,29.10
2022-12-11T07:46:29.032Z,29.70
2022-12-11T07:48:56.919Z,31.20
2022-12-11T07:51:28.799Z,32.20
2022-12-11T07:54:00.699Z,33.00
2022-12-11T07:56:30.341Z,31.70
2022-12-11T07:59:02.207Z,29.90
2022-12-11T08:01:35.664Z,30.60
2022-12-11T08:04:07.455Z,26.90
2022-12-11T08:06:38.768Z,28.00
2022-12-11T08:09:09.831Z,31.80
2022-12-11T08:11:38.339Z,30.30
2022-12-11T08:14:07.897Z,32.40
2022-12-11T08:16:36.532Z,35.50
2022-12-11T08:19:04.648Z,34.00
2022-12-11T08:21:32.350Z,31.30
2022-12-11T08:24:00.169Z,36.50
2022-12-11T08:26:31.837Z,32.20
2022-12-11T08:29:02.026Z,37.40
2022-12-11T08:31:30.513Z,38.00
2022-12-11T08:33:58.492Z,34.50
2022-12-11T08:36:26.442Z,35.30
2022-12-11T08:38:56.316Z,39.90
2022-12-11T08:41:28.729Z,33.60
2022-12-11T08:43:58.634Z,35.50
2022-12-11T08:46:30.667Z,37.10
2022-12-11T08:48:59.603Z,34.50
2022-12-11T08:51:30.262Z,37.00
2022-12-11T08:54:01.077Z,35.60
2022-12-11T08:56:30.277Z,35.20
2022-12-11T08:59:01.120Z,41.90
2022-12-11T09:01:29.771Z,36.50
2022-12-11T09:03:58.116Z,36.10
2022-12-11T09:06:30.178Z,37.20
2022-12-11T09:09:01.489Z,38.40
2022-12-11T09:11:33.038Z,36.10
2022-12-11T09:14:07.129Z,36.10
2022-12-11T09:16:40.440Z,35.40
2022-12-11T09:19:14.306Z,38.50
2022-12-11T09:21:43.864Z,37.00
2022-12-11T09:24:13.558Z,34.30
2022-12-11T09:26:41.508Z,33.60
2022-12-11T09:29:10.778Z,39.70
2022-12-11T09:31:38.511Z,38.50
2022-12-11T09:34:09.210Z,46.30
2022-12-11T09:36:40.247Z,36.30
2022-12-11T09:39:10.831Z,37.30
2022-12-11T09:42:11.196Z,36.60
2022-12-11T09:44:52.276Z,39.20
2022-12-11T09:47:38.437Z,44.10
2022-12-11T09:50:09.124Z,39.00
2022-12-11T09:53:17.817Z,41.60
2022-12-11T09:56:15.824Z,43.50
2022-12-11T09:59:03.143Z,46.10
2022-12-11T10:01:49.339Z,43.00
2022-12-11T10:04:32.077Z,42.20
2022-12-11T10:07:15.446Z,39.80
2022-12-11T10:10:01.433Z,42.30
2022-12-11T10:13:02.853Z,42.00
2022-12-11T10:15:47.625Z,40.10
2022-12-11T10:18:23.083Z,47.20
2022-12-11T10:20:53.853Z,45.50
2022-12-11T10:23:38.408Z,46.00
2022-12-11T10:26:16.792Z,47.40
2022-12-11T10:28:45.020Z,50.70
2022-12-11T10:31:56.048Z,45.20
2022-12-11T10:34:40.032Z,43.70
2022-12-11T10:37:07.911Z,43.30
2022-12-11T10:39:35.630Z,47.20
2022-12-11T10:42:18.382Z,42.60
2022-12-11T10:45:16.385Z,44.80
2022-12-11T10:47:44.165Z,44.10
2022-12-11T10:50:26.345Z,45.20
2022-12-11T10:52:54.228Z,43.90
2022-12-11T10:55:27.216Z,47.70
2022-12-11T10:58:00.960Z,52.40
2022-12-11T11:00:35.108Z,52.90
2022-12-11T11:03:05.918Z,46.60
2022-12-11T11:05:36.946Z,43.70
2022-12-11T11:08:24.290Z,50.00
2022-12-11T11:10:59.928Z,42.50
2022-12-11T11:13:32.486Z,48.10
2022-12-11T11:16:12.425Z,45.40
2022-12-11T11:18:41.962Z,36.90
2022-12-11T11:21:24.047Z,41.40
2022-12-11T11:23:54.211Z,46.70
2022-12-11T11:26:23.128Z,45.50
2022-12-11T11:28:57.317Z,46.50
2022-12-11T11:31:35.078Z,38.40
2022-12-11T11:34:10.757Z,44.50
2022-12-11T11:36:38.629Z,50.20
2022-12-11T11:39:32.691Z,48.70
2022-12-11T11:42:20.962Z,46.20
2022-12-11T11:45:20.609Z,49.60
2022-12-11T11:48:11.048Z,43.90
2022-12-11T11:50:45.649Z,42.10
2022-12-11T11:53:31.158Z,44.80
2022-12-11T11:56:37.632Z,47.90
2022-12-11T11:59:27.019Z,53.00
2022-12-11T12:01:57.904Z,40.80
2022-12-11T12:04:34.225Z,39.80
2022-12-11T12:07:19.832Z,49.50
2022-12-11T12:10:13.299Z,51.40
2022-12-11T12:12:52.276Z,47.00
2022-12-11T12:16:01.527Z,43.60
2022-12-11T12:19:03.654Z,43.80
2022-12-11T12:21:37.519Z,40.90
2022-12-11T12:24:15.591Z,46.70
2022-12-11T12:27:00.274Z,48.50
2022-12-11T12:29:56.668Z,45.70
2022-12-11T12:32:36.502Z,47.30
2022-12-11T12:35:50.471Z,49.50
2022-12-11T12:38:43.695Z,50.10
2022-12-11T12:42:05.619Z,54.00
2022-12-11T12:45:12.486Z,55.10
2022-12-11T12:47:46.673Z,46.20
2022-12-11T12:50:21.838Z,50.40
2022-12-11T12:52:53.041Z,49.30
2022-12-11T12:55:31.727Z,54.20
2022-12-11T12:58:05.297Z,50.40
2022-12-11T13:00:41.146Z,54.10
2022-12-11T13:03:23.052Z,54.40
2022-12-11T13:06:04.872Z,46.00
2022-12-11T13:08:52.608Z,47.40
2022-12-11T13:11:32.860Z,47.70
2022-12-11T13:14:22.088Z,48.00
2022-12-11T13:16:53.363Z,45.60
2022-12-11T13:19:24.093Z,47.10
2022-12-11T13:22:24.177Z,49.00
2022-12-11T13:24:51.834Z,55.30
2022-12-11T13:27:26.228Z,43.80
2022-12-11T13:30:24.412Z,41.50
2022-12-11T13:33:15.656Z,49.20
2022-12-11T13:35:43.818Z,46.60
2022-12-11T13:38:20.111Z,42.90
2022-12-11T13:40:55.654Z,44.90
2022-12-11T13:43:30.920Z,48.70
2022-12-11T13:46:12.966Z,50.60
2022-12-11T13:48:57.117Z,47.40
2022-12-11T13:51:27.007Z,42.30
2022-12-11T13:54:17.863Z,54.60
2022-12-11T13:56:59.201Z,48.80
2022-12-11T13:59:37.805Z,55.00
2022-12-11T14:02:21.225Z,56.40
2022-12-11T14:04:54.867Z,54.50
2022-12-11T14:07:47.950Z,50.10
2022-12-11T14:10:27.630Z,59.90
2022-12-11T14:13:07.456Z,56.60
2022-12-11T14:15:36.863Z,49.70
2022-12-11T14:18:05.574Z,53.10
2022-12-11T14:20:34.541Z,57.70
2022-12-11T14:23:18.849Z,51.90
2022-12-11T14:25:55.389Z,51.10
2022-12-11T14:28:27.731Z,55.10
2022-12-11T14:30:59.726Z,50.80
2022-12-11T14:33:34.004Z,59.40
2022-12-11T14:36:03.450Z,62.80
2022-12-11T14:38:44.472Z,51.00
2022-12-11T14:42:07.455Z,58.20
2022-12-11T14:45:20.660Z,53.70
2022-12-11T14:47:50.676Z,57.70
2022-12-11T14:50:39.431Z,59.50
2022-12-11T14:53:41.777Z,52.20
2022-12-11T14:56:23.223Z,60.50
2022-12-11T14:59:25.474Z,55.30
2022-12-11T15:02:32.602Z,54.10
2022-12-11T15:05:19.406Z,56.30
2022-12-11T15:08:13.480Z,62.60
2022-12-11T15:10:55.442Z,60.90
2022-12-11T15:13:24.356Z,58.70
2022-12-11T15:15:55.681Z,63.90
2022-12-11T15:18:32.689Z,64.90
2022-12-11T15:21:07.069Z,66.90
2022-12-11T15:23:54.635Z,60.80
2022-12-11T15:26:44.718Z,64.90
2022-12-11T15:29:36.194Z,59.60
2022-12-11T15:32:21.709Z,58.80
2022-12-11T15:34:59.787Z,55.00
2022-12-11T15:37:33.138Z,49.40
2022-12-11T15:40:04.707Z,55.60
2022-12-11T15:45:16.149Z,52.00
2022-12-11T15:47:44.544Z,60.20
2022-12-11T15:50:21.828Z,60.00
2022-12-11T15:52:51.957Z,50.20
2022-12-11T15:55:22.398Z,48.00
2022-12-11T15:57:58.051Z,62.10
2022-12-11T16:00:28.057Z,56.00
2022-12-11T16:02:57.395Z,53.50
2022-12-11T16:05:26.917Z,50.10
2022-12-11T16:07:59.173Z,50.70
2022-12-11T16:10:27.418Z,48.70
2022-12-11T16:12:59.336Z,57.60
2022-12-11T16:15:27.189Z,54.80
2022-12-11T16:18:08.388Z,55.30
2022-12-11T16:20:38.225Z,51.50
2022-12-11T16:23:06.002Z,55.10
2022-12-11T16:25:34.406Z,54.30
2022-12-11T16:28:02.189Z,53.90
2022-12-11T16:30:30.194Z,57.40
2022-12-11T16:32:57.925Z,65.30
2022-12-11T16:35:25.638Z,58.10
2022-12-11T16:37:54.199Z,72.70
2022-12-11T16:40:22.744Z,66.80
2022-12-11T16:42:50.918Z,62.80
2022-12-11T16:45:23.648Z,53.30
2022-12-11T16:47:52.614Z,49.80
2022-12-11T16:50:22.371Z,49.60
2022-12-11T16:52:50.184Z,54.40
2022-12-11T16:55:22.024Z,57.80
2022-12-11T16:57:49.735Z,53.10
2022-12-11T17:00:17.772Z,53.60
2022-12-11T17:02:45.517Z,53.20
2022-12-11T17:05:13.859Z,56.80
2022-12-11T17:07:41.709Z,50.00
2022-12-11T17:10:10.690Z,48.80
2022-12-11T17:12:38.959Z,44.70
2022-12-11T17:15:07.658Z,56.00
2022-12-11T17:17:35.467Z,51.20
2022-12-11T17:20:03.963Z,46.50
2022-12-11T17:22:31.674Z,45.70
2022-12-11T17:24:59.396Z,44.60
2022-12-11T17:27:27.493Z,49.30
2022-12-11T17:29:55.193Z,39.90
2022-12-11T17:32:22.897Z,41.50
2022-12-11T17:34:50.727Z,47.40
2022-12-11T17:37:18.618Z,47.80
2022-12-11T17:39:47.507Z,52.10
2022-12-11T17:42:15.302Z,45.90
2022-12-11T17:44:45.364Z,45.10
2022-12-11T17:47:13.308Z,44.70
2022-12-11T17:49:41.163Z,37.50
2022-12-11T17:52:09.055Z,44.80
2022-12-11T17:54:36.797Z,47.30
2022-12-11T17:57:06.449Z,44.30
2022-12-11T17:59:34.216Z,44.10
2022-12-11T18:02:02.069Z,42.80
2022-12-11T18:04:30.093Z,47.00
2022-12-11T18:06:58.027Z,47.60
2022-12-11T18:09:25.844Z,47.30
2022-12-11T18:11:53.864Z,46.40
2022-12-11T18:14:21.695Z,45.30
2022-12-11T18:16:49.660Z,47.20
2022-12-11T18:19:17.600Z,41.00
2022-12-11T18:21:45.771Z,42.70
2022-12-11T18:24:13.476Z,46.40
2022-12-11T18:26:44.204Z,44.00
2022-12-11T18:29:12.429Z,45.30
2022-12-11T18:31:42.828Z,42.10
2022-12-11T18:34:11.064Z,54.10
2022-12-11T18:36:40.681Z,47.20
2022-12-11T18:39:09.157Z,53.60
2022-12-11T18:41:36.931Z,49.50
2022-12-11T18:44:09.500Z,49.50
2022-12-11T18:46:39.507Z,52.90
2022-12-11T18:49:07.584Z,51.90
2022-12-11T18:51:35.930Z,51.30
2022-12-11T18:54:03.892Z,64.50
2022-12-11T18:56:31.702Z,48.20
2022-12-11T18:58:59.384Z,56.80
2022-12-11T19:01:30.126Z,47.80
2022-12-11T19:04:04.544Z,50.00
2022-12-11T19:06:35.679Z,50.30
2022-12-11T19:09:06.599Z,51.20
2022-12-11T19:11:38.925Z,39.20
2022-12-11T19:14:08.038Z,43.10
2022-12-11T19:16:40.749Z,42.80
2022-12-11T19:19:19.504Z,50.10
2022-12-11T19:21:49.613Z,51.60
2022-12-11T19:24:23.251Z,47.30
2022-12-11T19:26:51.732Z,51.00
2022-12-11T19:29:26.972Z,50.90
2022-12-11T19:31:55.997Z,45.90
2022-12-11T19:34:24.807Z,69.30
2022-12-11T19:36:53.623Z,56.20
2022-12-11T19:39:21.452Z,41.00
2022-12-11T19:41:49.679Z,45.60
2022-12-11T19:44:17.485Z,48.10
2022-12-11T19:46:45.287Z,49.40
2022-12-11T19:49:13.068Z,50.20
2022-12-11T19:51:42.570Z,51.00
2022-12-11T19:54:15.522Z,52.20
2022-12-11T19:56:44.367Z,48.00
2022-12-11T19:59:16.681Z,43.90
2022-12-11T20:01:47.913Z,47.50
2022-12-11T20:04:17.660Z,49.10
2022-12-11T20:06:47.130Z,50.00
2022-12-11T20:09:15.999Z,51.30
2022-12-11T20:11:45.466Z,54.60
2022-12-11T20:14:25.556Z,52.20
2022-12-11T20:17:11.307Z,51.90
2022-12-11T20:19:41.002Z,58.30
2022-12-11T20:22:09.468Z,50.30
2022-12-11T20:24:37.545Z,49.80
2022-12-11T20:27:05.634Z,53.90
2022-12-11T20:29:33.309Z,51.50
2022-12-11T20:32:01.135Z,55.50
2022-12-11T20:34:29.125Z,52.90
2022-12-11T20:36:57.029Z,55.60
2022-12-11T20:39:24.776Z,60.00
2022-12-11T20:41:52.529Z,54.50
2022-12-11T20:44:20.392Z,63.00
2022-12-11T20:46:48.180Z,55.00
2022-12-11T20:49:16.401Z,52.80
2022-12-11T20:51:44.143Z,56.50
2022-12-11T20:54:12.694Z,55.20
2022-12-11T20:56:40.533Z,57.90
2022-12-11T20:59:08.265Z,60.60
2022-12-11T21:01:36.222Z,49.90
2022-12-11T21:04:04.209Z,62.20
2022-12-11T21:06:36.774Z,57.20
2022-12-11T21:09:09.320Z,52.50
2022-12-11T21:11:37.311Z,56.90
2022-12-11T21:14:07.369Z,54.50
2022-12-11T21:16:36.767Z,57.30
2022-12-11T21:19:06.587Z,48.90
2022-12-11T21:21:42.615Z,51.30
2022-12-11T21:24:18.592Z,45.20
2022-12-11T21:26:48.355Z,46.50
2022-12-11T21:29:17.104Z,42.50
2022-12-11T21:31:44.968Z,50.80
2022-12-11T21:34:13.967Z,45.70
2022-12-11T21:36:46.637Z,47.80
2022-12-11T21:39:15.096Z,50.80
2022-12-11T21:41:42.888Z,56.30
2022-12-11T21:46:59.140Z,44.70
2022-12-11T21:49:27.076Z,42.90
2022-12-11T21:51:55.758Z,40.80
2022-12-11T21:54:23.489Z,48.10
2022-12-11T21:56:51.487Z,42.10
2022-12-11T21:59:19.228Z,44.20
2022-12-11T22:01:47.195Z,45.50
2022-12-11T22:04:16.091Z,44.40
2022-12-11T22:06:47.128Z,42.80
2022-12-11T22:09:17.771Z,41.80
2022-12-11T22:11:47.045Z,43.90
2022-12-11T22:14:18.068Z,39.70
2022-12-11T22:16:46.543Z,37.80
2022-12-11T22:19:14.538Z,37.40
2022-12-11T22:21:42.747Z,41.40
2022-12-11T22:24:10.635Z,36.30
2022-12-11T22:26:39.154Z,33.50
2022-12-11T22:29:07.031Z,37.30
2022-12-11T22:31:34.852Z,33.70
2022-12-11T22:34:02.625Z,37.00
2022-12-11T22:36:30.321Z,34.40
2022-12-11T22:39:00.107Z,37.70
2022-12-11T22:41:31.599Z,42.50
2022-12-11T22:44:00.094Z,46.50
2022-12-11T22:46:34.047Z,43.90
2022-12-11T22:49:01.803Z,45.00
2022-12-11T22:51:30.722Z,39.10
2022-12-11T22:54:00.001Z,41.90
2022-12-11T22:56:27.893Z,44.80
2022-12-11T22:58:57.355Z,47.10
2022-12-11T23:01:28.221Z,45.30
2022-12-11T23:03:56.053Z,36.40
2022-12-11T23:06:25.052Z,46.50
2022-12-11T23:08:58.352Z,48.20
2022-12-11T23:11:35.016Z,43.80
2022-12-11T23:14:06.074Z,41.40
2022-12-11T23:16:34.170Z,41.80
2022-12-11T23:19:02.856Z,42.90
2022-12-11T23:21:30.865Z,46.50
2022-12-11T23:23:58.968Z,37.80
2022-12-11T23:26:28.629Z,36.70
2022-12-11T23:28:58.453Z,40.60
2022-12-11T23:31:27.719Z,35.00
2022-12-11T23:33:56.224Z,41.80
2022-12-11T23:36:26.262Z,34.60
2022-12-11T23:38:55.240Z,31.20
2022-12-11T23:41:23.871Z,34.70
2022-12-11T23:43:52.241Z,29.80
2022-12-11T23:46:23.487Z,34.60
2022-12-11T23:48:53.289Z,29.20
2022-12-11T23:51:24.996Z,31.80
2022-12-11T23:53:53.370Z,31.80
2022-12-11T23:56:27.765Z,33.40
2022-12-11T23:58:56.749Z,31.00
